Elko, Minnesota
Current Conditions -  °F | °C
As of 12:09 PM on Tuesday 21 Oct 2014 (Local Time) from KLVN Reporting Station
Clear Clear  
Wind Chill: 54°   Ceiling: Unl
Heat Index: 54°   Visibility: 10mi
Dew Point: 41°   Wind: 9mph
Humidity: 62%   Direction: 110°ESE
Pressure: 30.18"   Gusts: NA
Location:  44.56°N, 93.33°W
Report Text: KLVN 211709Z AUTO 11008KT 10SM CLR 12/05 A3018 RMK AO2
Loading
Personal Weather Stations






























Interactive Weather Map
Tropical Storm Tracking
New forecast layout! Learn more

10-Day Weather Forecast

Advertisements
Track Severe Weather on mobile